Friendsville, Maryland
Current Conditions -  °F | °C
As of 4:55 PM on Friday 24 Oct 2014 (Local Time) from K2G4 Reporting Station
Clear Clear  
Wind Chill: 52°   Ceiling: Unl
Heat Index: 52°   Visibility: 10mi
Dew Point: 32°   Wind: 8mph
Humidity: 47%   Direction: 310°NW
Pressure: 30.01"   Gusts: NA
Location:  39.66°N, 79.41°W
Report Text: K2G4 242055Z AUTO 31007KT 272V352 10SM CLR 11/00 A3001 RMK AO1
Loading
Personal Weather Stations






























Interactive Weather Map
Tropical Storm Tracking
New forecast layout! Learn more

10-Day Weather Forecast

Advertisements
Track Severe Weather on mobile